createdAt,value
2019-05-28T00:00:42.734Z,58.70
2019-05-28T00:03:12.912Z,58.20
2019-05-28T00:05:43.059Z,57.90
2019-05-28T00:08:14.237Z,58.20
2019-05-28T00:10:44.237Z,59.10
2019-05-28T00:13:14.273Z,60.00
2019-05-28T00:15:45.923Z,61.20
2019-05-28T00:18:15.955Z,60.70
2019-05-28T00:20:47.066Z,60.20
2019-05-28T00:23:17.102Z,58.50
2019-05-28T00:25:47.169Z,57.30
2019-05-28T00:28:17.355Z,56.90
2019-05-28T00:30:47.268Z,57.00
2019-05-28T00:33:17.274Z,57.00
2019-05-28T00:35:47.363Z,56.70
2019-05-28T00:38:17.459Z,56.80
2019-05-28T00:40:47.549Z,56.80
2019-05-28T00:43:17.706Z,57.10
2019-05-28T00:45:47.838Z,57.00
2019-05-28T00:48:18.023Z,57.20
2019-05-28T00:50:48.082Z,57.10
2019-05-28T00:53:18.188Z,57.40
2019-05-28T00:55:49.581Z,57.80
2019-05-28T00:58:19.752Z,57.70
2019-05-28T01:00:52.331Z,57.40
2019-05-28T01:03:22.342Z,57.10
2019-05-28T01:05:52.396Z,57.50
2019-05-28T01:08:22.582Z,57.20
2019-05-28T01:10:52.557Z,57.90
2019-05-28T01:13:22.707Z,57.90
2019-05-28T01:15:52.637Z,57.70
2019-05-28T01:18:22.715Z,58.10
2019-05-28T01:20:52.764Z,58.10
2019-05-28T01:23:22.728Z,57.40
2019-05-28T01:25:52.790Z,57.00
2019-05-28T01:28:22.798Z,57.30
2019-05-28T01:30:59.349Z,57.10
2019-05-28T01:33:24.479Z,57.00
2019-05-28T01:35:54.473Z,57.00
2019-05-28T01:38:24.542Z,57.30
2019-05-28T01:40:54.713Z,57.10
2019-05-28T01:43:24.674Z,56.70
2019-05-28T01:45:54.658Z,56.90
2019-05-28T01:48:24.656Z,56.90
2019-05-28T01:50:54.648Z,56.80
2019-05-28T01:53:24.614Z,56.50
2019-05-28T01:55:54.614Z,56.60
2019-05-28T01:58:24.573Z,56.80
2019-05-28T02:01:09.493Z,56.50
2019-05-28T02:03:26.308Z,55.70
2019-05-28T02:05:56.320Z,55.70
2019-05-28T02:08:26.339Z,55.80
2019-05-28T02:10:56.420Z,55.80
2019-05-28T02:13:26.449Z,55.80
2019-05-28T02:15:56.446Z,56.10
2019-05-28T02:18:26.532Z,56.40
2019-05-28T02:20:56.594Z,58.20
2019-05-28T02:23:26.627Z,57.80
2019-05-28T02:25:56.759Z,57.60
2019-05-28T02:28:26.847Z,61.10
2019-05-28T02:30:56.853Z,63.50
2019-05-28T02:33:26.858Z,63.90
2019-05-28T02:35:56.812Z,63.80
2019-05-28T02:38:26.890Z,61.40
2019-05-28T02:40:57.082Z,64.30
2019-05-28T02:43:27.365Z,65.80
2019-05-28T02:45:57.358Z,63.10
2019-05-28T02:48:27.468Z,59.40
2019-05-28T02:50:59.600Z,57.90
2019-05-28T02:53:30.580Z,58.10
2019-05-28T02:56:00.746Z,57.40
2019-05-28T02:58:33.774Z,57.70
2019-05-28T03:01:05.536Z,57.90
2019-05-28T03:03:36.369Z,59.50
2019-05-28T03:06:07.090Z,58.50
2019-05-28T03:08:37.080Z,58.20
2019-05-28T03:11:07.129Z,57.50
2019-05-28T03:13:37.174Z,56.30
2019-05-28T03:16:08.846Z,55.50
2019-05-28T03:18:41.009Z,55.50
2019-05-28T03:21:12.332Z,55.50
2019-05-28T03:23:43.691Z,56.10
2019-05-28T03:26:13.825Z,56.30
2019-05-28T03:28:43.816Z,56.20
2019-05-28T03:31:13.952Z,56.60
2019-05-28T03:33:45.256Z,57.00
2019-05-28T03:36:17.445Z,57.40
2019-05-28T03:38:47.787Z,57.10
2019-05-28T03:41:17.832Z,57.30
2019-05-28T03:43:47.843Z,57.50
2019-05-28T03:46:17.826Z,57.70
2019-05-28T03:48:47.802Z,57.90
2019-05-28T03:51:17.776Z,57.80
2019-05-28T03:53:47.787Z,57.50
2019-05-28T03:56:17.834Z,57.60
2019-05-28T03:58:47.844Z,57.90
2019-05-28T04:01:17.930Z,58.00
2019-05-28T04:03:47.980Z,58.30
2019-05-28T04:06:18.102Z,57.90
2019-05-28T04:08:48.068Z,58.20
2019-05-28T04:11:18.017Z,57.40
2019-05-28T04:13:47.997Z,56.90
2019-05-28T04:16:18.022Z,57.30
2019-05-28T04:18:49.191Z,56.80
2019-05-28T04:21:19.186Z,56.70
2019-05-28T04:23:49.322Z,56.70
2019-05-28T04:26:20.596Z,56.20
2019-05-28T04:28:50.637Z,56.00
2019-05-28T04:31:20.638Z,56.40
2019-05-28T04:33:50.686Z,56.00
2019-05-28T04:36:20.859Z,56.50
2019-05-28T04:38:50.946Z,56.30
2019-05-28T04:41:20.926Z,56.20
2019-05-28T04:43:50.884Z,56.20
2019-05-28T04:46:21.172Z,55.90
2019-05-28T04:48:52.233Z,55.80
2019-05-28T04:51:22.184Z,55.70
2019-05-28T04:53:52.258Z,55.50
2019-05-28T04:56:22.287Z,55.40
2019-05-28T04:58:52.274Z,55.50
2019-05-28T05:01:22.336Z,54.40
2019-05-28T05:03:53.392Z,54.30
2019-05-28T05:06:23.376Z,54.70
2019-05-28T05:08:53.325Z,54.70
2019-05-28T05:11:23.343Z,54.40
2019-05-28T05:13:54.904Z,54.30
2019-05-28T05:16:24.944Z,54.20
2019-05-28T05:18:54.985Z,54.00
2019-05-28T05:21:25.005Z,53.70
2019-05-28T05:23:55.020Z,53.80
2019-05-28T05:26:25.031Z,54.40
2019-05-28T05:28:55.105Z,53.60
2019-05-28T05:31:25.102Z,52.90
2019-05-28T05:33:55.203Z,52.80
2019-05-28T05:36:25.177Z,53.00
2019-05-28T05:38:55.356Z,53.20
2019-05-28T05:41:25.285Z,53.00
2019-05-28T05:43:55.244Z,52.90
2019-05-28T05:46:25.291Z,52.70
2019-05-28T05:48:55.382Z,52.10
2019-05-28T05:51:25.394Z,52.40
2019-05-28T05:53:56.484Z,51.40
2019-05-28T05:56:45.826Z,51.50
2019-05-28T05:59:16.896Z,50.70
2019-05-28T06:01:46.895Z,50.40
2019-05-28T06:04:16.953Z,50.40
2019-05-28T06:06:46.928Z,51.80
2019-05-28T06:09:16.956Z,52.50
2019-05-28T06:11:47.017Z,50.60
2019-05-28T06:14:17.145Z,48.80
2019-05-28T06:16:48.224Z,49.50
2019-05-28T06:19:18.252Z,52.60
2019-05-28T06:21:49.515Z,53.70
2019-05-28T06:24:19.527Z,54.10
2019-05-28T06:26:49.488Z,53.40
2019-05-28T06:29:19.429Z,51.90
2019-05-28T06:31:49.587Z,49.50
2019-05-28T06:34:19.623Z,49.80
2019-05-28T06:36:49.648Z,55.60
2019-05-28T06:39:19.627Z,54.00
2019-05-28T06:41:49.708Z,52.40
2019-05-28T06:44:19.705Z,53.10
2019-05-28T06:46:49.740Z,56.30
2019-05-28T06:49:19.728Z,55.30
2019-05-28T06:51:49.812Z,54.70
2019-05-28T06:54:19.839Z,54.70
2019-05-28T06:56:49.854Z,53.70
2019-05-28T06:59:19.867Z,51.90
2019-05-28T07:01:50.938Z,50.40
2019-05-28T07:04:32.194Z,49.30
2019-05-28T07:06:52.683Z,54.00
2019-05-28T07:09:22.706Z,57.10
2019-05-28T07:11:52.655Z,54.90
2019-05-28T07:14:22.665Z,52.30
2019-05-28T07:16:53.929Z,52.40
2019-05-28T07:19:25.255Z,53.50
2019-05-28T07:21:55.623Z,55.50
2019-05-28T07:24:25.732Z,55.00
2019-05-28T07:26:55.800Z,56.10
2019-05-28T07:29:25.819Z,55.50
2019-05-28T07:31:55.746Z,51.80
2019-05-28T07:34:30.596Z,49.10
2019-05-28T07:36:57.389Z,48.30
2019-05-28T07:39:27.561Z,48.10
2019-05-28T07:41:57.561Z,47.90
2019-05-28T07:44:27.582Z,48.90
2019-05-28T07:46:57.593Z,52.20
2019-05-28T07:49:27.612Z,51.70
2019-05-28T07:51:57.639Z,47.60
2019-05-28T07:54:27.717Z,49.30
2019-05-28T07:56:57.720Z,49.10
2019-05-28T07:59:27.651Z,45.00
2019-05-28T08:01:57.808Z,43.50
2019-05-28T08:04:27.882Z,43.10
2019-05-28T08:06:57.838Z,42.70
2019-05-28T08:09:27.836Z,45.10
2019-05-28T08:11:57.844Z,48.70
2019-05-28T08:14:27.769Z,49.90
2019-05-28T08:16:57.771Z,50.70
2019-05-28T08:19:27.770Z,50.30
2019-05-28T08:21:57.875Z,51.90
2019-05-28T08:24:27.879Z,51.30
2019-05-28T08:26:57.900Z,47.80
2019-05-28T08:29:27.870Z,45.80
2019-05-28T08:31:57.906Z,45.60
2019-05-28T08:34:28.024Z,44.10
2019-05-28T08:37:05.876Z,44.40
2019-05-28T08:39:33.354Z,43.60
2019-05-28T08:42:01.390Z,44.30
2019-05-28T08:44:31.485Z,43.50
2019-05-28T08:47:01.576Z,41.50
2019-05-28T08:49:31.603Z,42.30
2019-05-28T08:52:01.605Z,43.10
2019-05-28T08:54:31.553Z,43.00
2019-05-28T08:57:02.683Z,44.60
2019-05-28T08:59:32.752Z,43.70
2019-05-28T09:02:02.759Z,42.40
2019-05-28T09:04:32.707Z,40.00
2019-05-28T09:07:02.719Z,36.00
2019-05-28T09:09:32.731Z,34.50
2019-05-28T09:12:02.984Z,35.20
2019-05-28T09:14:54.478Z,33.60
2019-05-28T09:17:05.277Z,31.50
2019-05-28T09:19:35.671Z,30.60
2019-05-28T09:22:06.829Z,31.10
2019-05-28T09:24:36.999Z,34.70
2019-05-28T09:27:07.034Z,34.50
2019-05-28T09:29:37.060Z,35.50
2019-05-28T09:32:07.054Z,33.90
2019-05-28T09:34:37.182Z,34.80
2019-05-28T09:37:08.244Z,35.20
2019-05-28T09:39:38.337Z,35.70
2019-05-28T09:42:08.454Z,35.40
2019-05-28T09:44:38.490Z,32.80
2019-05-28T09:47:08.529Z,32.00
2019-05-28T09:49:38.605Z,29.60
2019-05-28T09:52:08.667Z,27.60
2019-05-28T09:54:38.716Z,27.40
2019-05-28T09:57:08.772Z,26.70
2019-05-28T09:59:41.786Z,30.40
2019-05-28T10:02:10.885Z,31.30
2019-05-28T10:04:49.154Z,35.00
2019-05-28T10:07:12.790Z,38.90
2019-05-28T10:09:42.815Z,39.10
2019-05-28T10:12:12.992Z,34.80
2019-05-28T10:14:44.422Z,32.50
2019-05-28T10:17:14.796Z,30.80
2019-05-28T10:19:44.799Z,30.00
2019-05-28T10:22:14.879Z,27.70
2019-05-28T10:24:44.948Z,27.20
2019-05-28T10:27:15.011Z,24.50
2019-05-28T10:29:45.096Z,27.90
2019-05-28T10:32:15.136Z,28.20
2019-05-28T10:35:02.696Z,23.80
2019-05-28T10:37:18.504Z,21.00
2019-05-28T10:39:50.581Z,24.00
2019-05-28T10:42:20.658Z,25.50
2019-05-28T10:44:51.560Z,30.10
2019-05-28T10:47:23.751Z,29.60
2019-05-28T10:49:54.116Z,25.80
2019-05-28T10:52:24.236Z,23.40
2019-05-28T10:54:54.192Z,25.90
2019-05-28T10:57:24.340Z,24.20
2019-05-28T10:59:54.378Z,28.00
2019-05-28T11:02:24.518Z,27.80
2019-05-28T11:04:55.364Z,29.10
2019-05-28T11:07:25.451Z,33.10
2019-05-28T11:09:55.492Z,31.80
2019-05-28T11:12:25.527Z,31.30
2019-05-28T11:14:55.679Z,27.50
2019-05-28T11:17:25.772Z,24.30
2019-05-28T11:19:55.793Z,26.40
2019-05-28T11:22:25.855Z,30.90
2019-05-28T11:24:57.955Z,36.00
2019-05-28T11:27:27.949Z,37.80
2019-05-28T11:29:57.980Z,34.60
2019-05-28T11:32:29.002Z,31.20
2019-05-28T11:34:59.057Z,35.50
2019-05-28T11:37:29.157Z,34.90
2019-05-28T11:39:59.224Z,34.60
2019-05-28T11:42:30.437Z,33.90
2019-05-28T11:45:00.483Z,31.10
2019-05-28T11:47:30.644Z,32.90
2019-05-28T11:50:00.700Z,34.50
2019-05-28T11:52:31.845Z,34.30
2019-05-28T11:55:02.013Z,31.60
2019-05-28T11:57:32.039Z,32.70
2019-05-28T12:00:02.049Z,35.50
2019-05-28T12:02:32.127Z,34.80
2019-05-28T12:05:02.196Z,31.20
2019-05-28T12:07:32.132Z,27.60
2019-05-28T12:10:02.495Z,24.60
2019-05-28T12:12:35.759Z,26.10
2019-05-28T12:15:10.985Z,28.10
2019-05-28T12:17:44.482Z,30.00
2019-05-28T12:20:14.492Z,35.70
2019-05-28T12:22:44.605Z,34.80
2019-05-28T12:25:16.535Z,37.40
2019-05-28T12:27:46.660Z,34.40
2019-05-28T12:30:18.700Z,28.30
2019-05-28T12:32:49.228Z,28.60
2019-05-28T12:35:29.155Z,28.80
2019-05-28T12:37:52.928Z,28.40
2019-05-28T12:40:23.129Z,29.60
2019-05-28T12:42:53.044Z,32.10
2019-05-28T12:45:35.168Z,35.20
2019-05-28T12:48:09.354Z,36.10
2019-05-28T12:50:27.788Z,36.40
2019-05-28T12:52:57.807Z,36.10
2019-05-28T12:55:27.872Z,37.30
2019-05-28T12:57:57.821Z,37.10
2019-05-28T13:00:28.240Z,37.10
2019-05-28T13:02:58.405Z,38.40
2019-05-28T13:05:29.156Z,39.60
2019-05-28T13:08:08.096Z,39.40
2019-05-28T13:10:30.729Z,38.90
2019-05-28T13:13:00.743Z,39.40
2019-05-28T13:15:32.055Z,39.90
2019-05-28T13:18:02.218Z,39.70
2019-05-28T13:20:32.158Z,39.40
2019-05-28T13:23:02.094Z,37.10
2019-05-28T13:25:32.096Z,38.50
2019-05-28T13:28:02.120Z,38.30
2019-05-28T13:30:32.258Z,37.50
2019-05-28T13:33:02.287Z,36.70
2019-05-28T13:35:33.109Z,36.30
2019-05-28T13:38:03.066Z,36.30
2019-05-28T13:40:33.139Z,38.30
2019-05-28T13:43:03.318Z,38.20
2019-05-28T13:45:33.361Z,36.50
2019-05-28T13:48:03.450Z,36.00
2019-05-28T13:50:33.495Z,37.70
2019-05-28T13:53:03.619Z,38.40
2019-05-28T13:55:33.637Z,39.00
2019-05-28T13:58:03.653Z,41.50
2019-05-28T14:00:33.851Z,41.80
2019-05-28T14:03:04.702Z,39.50
2019-05-28T14:05:34.862Z,38.80
2019-05-28T14:08:05.094Z,37.90
2019-05-28T14:10:35.494Z,37.40
2019-05-28T14:13:05.739Z,37.60
2019-05-28T14:15:35.750Z,38.10
2019-05-28T14:18:06.152Z,38.90
2019-05-28T14:20:36.433Z,38.80
2019-05-28T14:23:07.651Z,39.80
2019-05-28T14:25:37.660Z,39.20
2019-05-28T14:28:07.645Z,40.80
2019-05-28T14:30:37.793Z,41.80
2019-05-28T14:33:07.895Z,43.10
2019-05-28T14:35:37.835Z,43.90
2019-05-28T14:38:07.823Z,42.60
2019-05-28T14:40:38.025Z,42.80
2019-05-28T14:43:08.130Z,44.20
2019-05-28T14:45:38.168Z,44.80
2019-05-28T14:48:08.145Z,45.60
2019-05-28T14:50:38.242Z,46.90
2019-05-28T14:53:09.302Z,45.20
2019-05-28T14:55:39.353Z,46.70
2019-05-28T14:58:13.515Z,46.80
2019-05-28T15:00:41.049Z,48.80
2019-05-28T15:03:11.180Z,48.60
2019-05-28T15:05:41.187Z,48.00
2019-05-28T15:08:13.168Z,48.00
2019-05-28T15:10:43.186Z,47.40
2019-05-28T15:13:13.171Z,48.00
2019-05-28T15:15:43.199Z,47.40
2019-05-28T15:18:13.259Z,47.20
2019-05-28T15:20:43.256Z,48.80
2019-05-28T15:23:13.160Z,47.60
2019-05-28T15:25:43.068Z,47.70
2019-05-28T15:28:13.013Z,46.20
2019-05-28T15:30:43.069Z,46.70
2019-05-28T15:33:13.122Z,46.70
2019-05-28T15:35:43.046Z,46.10
2019-05-28T15:38:13.103Z,47.40
2019-05-28T15:40:44.494Z,47.30
2019-05-28T15:43:14.503Z,50.50
2019-05-28T15:45:44.562Z,52.70
2019-05-28T15:48:14.566Z,47.40
2019-05-28T15:50:44.477Z,47.40
2019-05-28T15:53:14.494Z,49.00
2019-05-28T15:55:44.469Z,50.00
2019-05-28T15:58:14.370Z,51.80
2019-05-28T16:00:44.347Z,50.90
2019-05-28T16:03:14.342Z,51.10
2019-05-28T16:05:44.523Z,53.50
2019-05-28T16:08:14.504Z,51.30
2019-05-28T16:10:44.396Z,51.80
2019-05-28T16:13:14.322Z,54.80
2019-05-28T16:15:44.233Z,56.30
2019-05-28T16:18:14.174Z,52.00
2019-05-28T16:20:44.179Z,50.70
2019-05-28T16:23:14.119Z,51.20
2019-05-28T16:25:44.099Z,51.90
2019-05-28T16:28:14.200Z,52.60
2019-05-28T16:30:44.259Z,52.70
2019-05-28T16:33:14.278Z,54.30
2019-05-28T16:35:44.272Z,54.20
2019-05-28T16:38:14.353Z,53.20
2019-05-28T16:40:44.779Z,54.20
2019-05-28T16:43:14.774Z,54.70
2019-05-28T16:45:44.693Z,54.10
2019-05-28T16:48:16.151Z,54.00
2019-05-28T16:50:47.233Z,54.60
2019-05-28T16:53:17.254Z,55.70
2019-05-28T16:55:47.257Z,56.00
2019-05-28T16:58:17.253Z,55.70
2019-05-28T17:00:47.246Z,54.80
2019-05-28T17:03:17.362Z,54.80
2019-05-28T17:05:47.399Z,53.00
2019-05-28T17:08:17.315Z,53.40
2019-05-28T17:10:47.288Z,52.20
2019-05-28T17:13:18.824Z,52.80
2019-05-28T17:15:48.806Z,51.20
2019-05-28T17:18:18.873Z,50.60
2019-05-28T17:20:48.856Z,50.40
2019-05-28T17:23:20.118Z,51.00
2019-05-28T17:25:50.185Z,50.80
2019-05-28T17:28:20.257Z,50.80
2019-05-28T17:30:50.191Z,51.70
2019-05-28T17:33:20.271Z,51.40
2019-05-28T17:35:51.692Z,51.60
2019-05-28T17:38:21.896Z,52.00
2019-05-28T17:40:51.979Z,50.40
2019-05-28T17:43:22.108Z,51.30
2019-05-28T17:45:52.090Z,51.30
2019-05-28T17:48:23.099Z,52.00
2019-05-28T17:50:53.354Z,51.60
2019-05-28T17:53:24.431Z,52.10
2019-05-28T17:55:54.508Z,51.90
2019-05-28T17:58:24.498Z,52.40
2019-05-28T18:00:54.435Z,52.90
2019-05-28T18:03:24.422Z,52.60
2019-05-28T18:05:54.355Z,53.50
2019-05-28T18:08:24.520Z,53.90
2019-05-28T18:11:03.634Z,52.60
2019-05-28T18:13:28.461Z,52.20
2019-05-28T18:15:58.137Z,52.40
2019-05-28T18:18:28.214Z,52.40
2019-05-28T18:20:58.195Z,52.10
2019-05-28T18:23:28.174Z,51.40
2019-05-28T18:25:58.533Z,51.40
2019-05-28T18:28:28.478Z,50.80
2019-05-28T18:30:58.394Z,51.70
2019-05-28T18:33:28.318Z,51.30
2019-05-28T18:35:58.332Z,51.30
2019-05-28T18:38:28.394Z,50.30
2019-05-28T18:40:59.766Z,50.40
2019-05-28T18:43:29.873Z,50.20
2019-05-28T18:45:59.867Z,50.10
2019-05-28T18:48:30.013Z,50.90
2019-05-28T18:51:00.078Z,50.10
2019-05-28T18:53:30.601Z,49.00
2019-05-28T18:56:16.421Z,49.10
2019-05-28T18:58:35.543Z,48.80
2019-05-28T19:01:04.005Z,48.50
2019-05-28T19:03:34.074Z,48.60
2019-05-28T19:06:04.783Z,47.70
2019-05-28T19:08:34.918Z,46.90
2019-05-28T19:11:05.007Z,47.40
2019-05-28T19:13:35.184Z,47.70
2019-05-28T19:16:05.260Z,47.00
2019-05-28T19:18:35.586Z,46.90
2019-05-28T19:21:05.629Z,48.70
2019-05-28T19:23:37.441Z,48.20
2019-05-28T19:26:08.058Z,48.50
2019-05-28T19:28:38.119Z,48.10
2019-05-28T19:31:08.263Z,48.60
2019-05-28T19:33:38.424Z,48.90
2019-05-28T19:36:12.641Z,48.70
2019-05-28T19:38:45.948Z,48.30
2019-05-28T19:41:16.563Z,48.80
2019-05-28T19:43:46.659Z,47.10
2019-05-28T19:46:17.057Z,47.20
2019-05-28T19:48:47.255Z,47.90
2019-05-28T19:51:19.513Z,47.70
2019-05-28T19:53:49.553Z,48.40
2019-05-28T19:56:22.044Z,49.40
2019-05-28T19:58:52.032Z,49.10
2019-05-28T20:01:22.023Z,48.80
2019-05-28T20:03:52.185Z,48.80
2019-05-28T20:06:22.457Z,49.10
2019-05-28T20:08:52.609Z,49.60
2019-05-28T20:11:22.641Z,51.60
2019-05-28T20:13:52.627Z,53.50
2019-05-28T20:16:24.244Z,54.90
2019-05-28T20:18:55.512Z,54.30
2019-05-28T20:21:25.912Z,55.70
2019-05-28T20:23:56.468Z,54.40
2019-05-28T20:26:26.451Z,53.30
2019-05-28T20:29:07.874Z,54.70
2019-05-28T20:31:28.340Z,54.00
2019-05-28T20:33:59.050Z,55.90
2019-05-28T20:36:29.080Z,52.70
2019-05-28T20:38:59.593Z,52.30
2019-05-28T20:41:29.677Z,51.30
2019-05-28T20:44:00.263Z,51.80
2019-05-28T20:46:30.387Z,52.50
2019-05-28T20:49:00.652Z,52.60
2019-05-28T20:51:30.845Z,53.00
2019-05-28T20:54:00.752Z,53.00
2019-05-28T20:56:30.849Z,53.40
2019-05-28T20:59:01.459Z,53.40
2019-05-28T21:01:31.695Z,54.10
2019-05-28T21:04:01.677Z,54.70
2019-05-28T21:06:31.687Z,54.90
2019-05-28T21:09:02.002Z,54.90
2019-05-28T21:11:33.914Z,54.10
2019-05-28T21:14:04.138Z,54.20
2019-05-28T21:16:34.293Z,54.30
2019-05-28T21:19:04.351Z,54.30
2019-05-28T21:21:34.418Z,53.50
2019-05-28T21:24:04.655Z,54.10
2019-05-28T21:26:34.659Z,54.30
2019-05-28T21:29:04.710Z,55.00
2019-05-28T21:31:34.654Z,53.80
2019-05-28T21:34:04.703Z,54.30
2019-05-28T21:36:34.672Z,55.00
2019-05-28T21:39:07.301Z,54.80
2019-05-28T21:41:37.498Z,54.70
2019-05-28T21:44:07.558Z,55.40
2019-05-28T21:46:37.487Z,55.60
2019-05-28T21:49:07.459Z,56.30
2019-05-28T21:51:37.384Z,55.90
2019-05-28T21:54:07.278Z,55.80
2019-05-28T21:56:37.220Z,55.50
2019-05-28T21:59:07.302Z,55.50
2019-05-28T22:01:38.440Z,55.10
2019-05-28T22:04:08.343Z,55.10
2019-05-28T22:06:38.277Z,55.70
2019-05-28T22:09:08.671Z,54.90
2019-05-28T22:11:38.640Z,55.40
2019-05-28T22:14:08.768Z,55.60
2019-05-28T22:16:38.774Z,56.60
2019-05-28T22:19:08.868Z,57.40
2019-05-28T22:21:38.912Z,58.50
2019-05-28T22:24:09.007Z,58.60
2019-05-28T22:26:39.010Z,58.60
2019-05-28T22:29:09.087Z,57.30
2019-05-28T22:31:39.200Z,57.40
2019-05-28T22:34:09.181Z,58.50
2019-05-28T22:36:39.224Z,58.50
2019-05-28T22:39:09.651Z,58.40
2019-05-28T22:41:41.772Z,58.40
2019-05-28T22:44:11.898Z,58.60
2019-05-28T22:46:41.941Z,58.60
2019-05-28T22:49:11.938Z,58.60
2019-05-28T22:51:41.966Z,59.00
2019-05-28T22:54:12.026Z,59.30
2019-05-28T22:56:42.006Z,59.80
2019-05-28T22:59:11.920Z,59.50
2019-05-28T23:01:41.926Z,59.50
2019-05-28T23:04:11.983Z,60.00
2019-05-28T23:06:41.908Z,59.90
2019-05-28T23:09:11.893Z,60.10
2019-05-28T23:11:41.896Z,58.80
2019-05-28T23:14:11.890Z,58.70
2019-05-28T23:16:41.908Z,59.30
2019-05-28T23:19:11.826Z,59.30
2019-05-28T23:21:41.833Z,58.80
2019-05-28T23:24:13.063Z,61.20
2019-05-28T23:26:43.143Z,59.80
2019-05-28T23:29:13.263Z,60.20
2019-05-28T23:31:43.285Z,60.70
2019-05-28T23:34:13.336Z,60.00
2019-05-28T23:36:43.368Z,58.70
2019-05-28T23:39:13.388Z,58.80
2019-05-28T23:41:43.515Z,59.30
2019-05-28T23:44:13.860Z,61.30
2019-05-28T23:46:44.979Z,60.00
2019-05-28T23:49:14.924Z,60.20
2019-05-28T23:51:44.895Z,63.20
2019-05-28T23:54:14.885Z,61.80
2019-05-28T23:56:44.952Z,61.90
2019-05-28T23:59:14.948Z,62.20
